Time;durP1;ratioP1;P1;durP2;ratioP2;P2;SDS_P1;SDS_P2;PMS_P1;PMS_P2;Temp;Humidity;BMP_temperature;BMP_pressure;BME280_temperature;BME280_humidity;BME280_pressure;Samples;Min_cycle;Max_cycle;Signal;HPM_P1;HPM_P2
2023/04/26 00:01:57;;;;;;;10.95;5.43;;;;;;;3.77;100.00;99999.59;5076602;28;20077;-73
2023/04/26 00:04:24;;;;;;;12.43;5.68;;;;;;;3.82;100.00;99996.97;5072384;28;20032;-73
2023/04/26 00:06:49;;;;;;;15.88;5.35;;;;;;;3.81;100.00;99997.44;5072394;28;20055;-73
2023/04/26 00:09:15;;;;;;;11.18;6.18;;;;;;;3.83;100.00;100004.19;5073306;28;22372;-74
2023/04/26 00:11:41;;;;;;;8.77;4.78;;;;;;;3.83;100.00;99995.72;5073405;28;20116;-74
2023/04/26 00:14:06;;;;;;;14.95;5.40;;;;;;;3.79;100.00;100002.75;5073551;28;20021;-73
2023/04/26 00:16:31;;;;;;;8.20;4.88;;;;;;;3.69;100.00;99992.56;5073522;28;20028;-74
2023/04/26 00:18:57;;;;;;;16.77;7.95;;;;;;;3.65;100.00;99993.50;5073439;28;20508;-74
2023/04/26 00:21:22;;;;;;;10.20;5.05;;;;;;;3.65;100.00;100001.97;5073495;28;20080;-73
2023/04/26 00:23:48;;;;;;;14.38;4.80;;;;;;;3.63;100.00;100000.81;5072042;28;20474;-74
2023/04/26 00:26:13;;;;;;;9.55;4.60;;;;;;;3.58;100.00;100007.84;5071993;28;20033;-74
2023/04/26 00:28:39;;;;;;;12.27;5.25;;;;;;;3.54;100.00;100012.03;5055236;28;20025;-74
2023/04/26 00:31:04;;;;;;;11.50;5.10;;;;;;;3.42;100.00;99999.50;5073527;28;20021;-74
2023/04/26 00:33:30;;;;;;;11.15;4.60;;;;;;;3.49;100.00;100006.94;5072193;28;20025;-74
2023/04/26 00:35:55;;;;;;;11.00;4.78;;;;;;;3.48;100.00;100011.78;5073554;28;20098;-76
2023/04/26 00:38:20;;;;;;;9.57;5.05;;;;;;;3.51;100.00;100007.28;5073240;28;20063;-74
2023/04/26 00:40:46;;;;;;;15.05;4.82;;;;;;;3.44;100.00;99999.03;5071893;28;20086;-75
2023/04/26 00:43:11;;;;;;;10.20;4.70;;;;;;;3.47;100.00;100018.72;5073366;28;20051;-73
2023/04/26 00:45:37;;;;;;;9.38;4.70;;;;;;;3.47;100.00;100020.72;5071829;28;20066;-74
2023/04/26 00:48:02;;;;;;;17.85;5.15;;;;;;;3.38;100.00;100012.16;5073343;28;20024;-75
2023/04/26 00:50:28;;;;;;;16.40;5.35;;;;;;;3.35;100.00;100021.50;5072967;28;20043;-74
2023/04/26 00:52:54;;;;;;;14.27;5.40;;;;;;;3.35;100.00;100022.28;5073146;28;20043;-74
2023/04/26 00:55:21;;;;;;;11.88;4.35;;;;;;;3.40;100.00;100029.41;5071503;28;20060;-74
2023/04/26 00:57:47;;;;;;;13.85;4.97;;;;;;;3.44;100.00;100032.91;5074934;28;20104;-75
2023/04/26 01:00:13;;;;;;;11.18;5.13;;;;;;;3.26;100.00;100027.03;5077234;28;20374;-73
2023/04/26 01:02:38;;;;;;;13.07;5.10;;;;;;;3.18;100.00;100027.22;5075617;28;20028;-73
2023/04/26 01:05:05;;;;;;;12.25;4.82;;;;;;;3.16;100.00;100026.13;5076922;28;20044;-74
2023/04/26 01:07:31;;;;;;;13.98;5.20;;;;;;;3.12;100.00;100029.06;5076791;28;20107;-75
2023/04/26 01:09:57;;;;;;;10.52;4.88;;;;;;;3.08;100.00;100028.34;5076402;28;20119;-74
2023/04/26 01:12:23;;;;;;;13.02;4.93;;;;;;;3.00;100.00;100021.34;5074624;28;20050;-73
2023/04/26 01:14:49;;;;;;;10.60;5.10;;;;;;;3.10;100.00;100031.53;5074376;28;20093;-73
2023/04/26 01:17:14;;;;;;;19.33;5.57;;;;;;;3.10;100.00;100034.34;5074424;28;20028;-73
2023/04/26 01:19:47;;;;;;;14.68;4.10;;;;;;;2.99;100.00;100031.03;5075242;28;20146;-75
2023/04/26 01:22:12;;;;;;;20.08;5.10;;;;;;;3.10;100.00;100048.44;5075142;28;20085;-75
2023/04/26 01:24:39;;;;;;;16.27;5.07;;;;;;;3.03;100.00;100048.66;5075230;28;20032;-75
2023/04/26 01:27:05;;;;;;;9.68;4.15;;;;;;;3.11;100.00;100046.44;5073977;28;20078;-74
2023/04/26 01:29:30;;;;;;;8.75;5.40;;;;;;;3.16;100.00;100046.66;5076331;28;20490;-74
2023/04/26 01:31:56;;;;;;;16.10;5.35;;;;;;;3.15;100.00;100044.28;5074604;28;20028;-75
2023/04/26 01:34:21;;;;;;;7.85;4.20;;;;;;;3.07;100.00;100048.56;5073976;28;20028;-74
2023/04/26 01:36:47;;;;;;;12.45;5.00;;;;;;;3.02;100.00;100055.56;5073924;28;20055;-74
2023/04/26 01:39:12;;;;;;;11.05;4.47;;;;;;;3.03;100.00;100059.94;5073894;28;20384;-72
2023/04/26 01:41:37;;;;;;;12.02;5.47;;;;;;;2.92;100.00;100048.19;5072670;28;20147;-75
2023/04/26 01:44:03;;;;;;;13.65;5.15;;;;;;;2.86;100.00;100055.63;5073944;28;20117;-73
2023/04/26 01:46:28;;;;;;;12.00;4.95;;;;;;;2.86;100.00;100052.78;5075611;28;20181;-73
2023/04/26 01:48:54;;;;;;;9.80;5.35;;;;;;;2.90;100.00;100056.31;5076208;28;20064;-75
2023/04/26 01:51:20;;;;;;;13.88;5.25;;;;;;;2.85;100.00;100054.03;5076621;28;20028;-73
2023/04/26 01:53:45;;;;;;;10.85;4.78;;;;;;;2.93;100.00;100054.63;5076164;28;20078;-73
2023/04/26 01:56:11;;;;;;;18.17;5.53;;;;;;;2.96;100.00;100056.53;5075714;28;20491;-75
2023/04/26 01:58:36;;;;;;;8.50;4.40;;;;;;;2.94;100.00;100062.63;5075678;28;20024;-74
2023/04/26 02:01:06;;;;;;;6.47;4.30;;;;;;;2.99;100.00;100058.47;5075627;28;20473;-75
2023/04/26 02:03:31;;;;;;;12.35;4.70;;;;;;;2.95;100.00;100060.59;5074298;28;20036;-74
2023/04/26 02:05:57;;;;;;;15.88;5.55;;;;;;;2.92;100.00;100055.84;5075449;28;20029;-73
2023/04/26 02:08:22;;;;;;;14.43;5.50;;;;;;;2.91;100.00;100062.75;5074150;28;20094;-76
2023/04/26 02:10:47;;;;;;;9.35;4.63;;;;;;;2.85;100.00;100061.69;5074188;28;20386;-73
2023/04/26 02:13:13;;;;;;;8.38;4.15;;;;;;;2.78;100.00;100062.72;5074352;28;20073;-75
2023/04/26 02:15:39;;;;;;;18.90;4.95;;;;;;;2.81;100.00;100058.97;5075231;28;20024;-74
2023/04/26 02:18:05;;;;;;;9.40;4.85;;;;;;;2.76;100.00;100057.50;5075238;28;20108;-74
2023/04/26 02:20:30;;;;;;;10.88;4.13;;;;;;;2.81;100.00;100056.16;5075246;28;20021;-74
2023/04/26 02:22:56;;;;;;;12.70;4.60;;;;;;;2.75;100.00;100038.97;5074248;28;20095;-75
2023/04/26 02:25:21;;;;;;;11.05;5.35;;;;;;;2.75;100.00;100060.75;5075504;28;20043;-76
2023/04/26 02:27:46;;;;;;;10.65;5.18;;;;;;;2.78;100.00;100065.53;5075195;28;20491;-73
2023/04/26 02:30:12;;;;;;;11.60;4.60;;;;;;;2.73;100.00;100061.22;5073898;28;20032;-74
2023/04/26 02:32:38;;;;;;;8.27;4.22;;;;;;;2.71;100.00;100060.06;5075273;28;20032;-74
2023/04/26 02:35:04;;;;;;;9.65;4.78;;;;;;;2.69;100.00;100063.31;5075278;28;20453;-73
2023/04/26 02:37:30;;;;;;;18.30;4.20;;;;;;;2.61;100.00;100066.78;5074885;28;20028;-73
2023/04/26 02:39:55;;;;;;;6.85;4.07;;;;;;;2.60;100.00;100071.63;5073898;28;20090;-74
2023/04/26 02:42:20;;;;;;;12.43;5.88;;;;;;;2.64;100.00;100069.50;5074933;28;20504;-72
2023/04/26 02:44:46;;;;;;;9.45;4.28;;;;;;;2.61;100.00;100063.97;5074768;28;20074;-73
2023/04/26 02:47:11;;;;;;;9.93;5.03;;;;;;;2.57;100.00;100071.75;5074823;28;20060;-73
2023/04/26 02:49:37;;;;;;;9.52;4.18;;;;;;;2.45;100.00;100070.44;5073175;28;20029;-76
2023/04/26 02:52:02;;;;;;;9.57;5.22;;;;;;;2.51;100.00;100071.47;5073239;28;20028;-73
2023/04/26 02:54:27;;;;;;;10.07;4.40;;;;;;;2.47;100.00;100067.97;5073928;28;20104;-73
2023/04/26 02:56:54;;;;;;;11.85;5.40;;;;;;;2.44;100.00;100068.06;5074662;28;20071;-73
2023/04/26 02:59:19;;;;;;;11.60;4.60;;;;;;;2.48;100.00;100072.38;5073478;28;20033;-73
2023/04/26 03:01:45;;;;;;;9.38;4.70;;;;;;;2.44;100.00;100073.72;5074559;28;20078;-74
2023/04/26 03:04:10;;;;;;;15.23;4.95;;;;;;;2.32;100.00;100073.19;5074380;28;20113;-73
2023/04/26 03:06:35;;;;;;;13.05;3.90;;;;;;;2.35;100.00;100080.75;5074308;28;20028;-74
2023/04/26 03:09:01;;;;;;;10.18;4.40;;;;;;;2.41;100.00;100080.22;5074481;28;20309;-73
2023/04/26 03:11:26;;;;;;;9.27;3.45;;;;;;;2.33;100.00;100079.63;5074370;28;20115;-74
2023/04/26 03:13:52;;;;;;;10.13;4.15;;;;;;;2.26;100.00;100079.78;5074292;28;20040;-75
2023/04/26 03:16:22;;;;;;;11.23;5.15;;;;;;;2.39;100.00;100086.28;5073008;28;20477;-73
2023/04/26 03:18:48;;;;;;;4.50;3.42;;;;;;;2.36;100.00;100087.19;5073748;28;20124;-73
2023/04/26 03:21:13;;;;;;;6.20;3.20;;;;;;;2.50;100.00;100083.19;5074079;28;20474;-75
2023/04/26 03:23:39;;;;;;;11.88;3.35;;;;;;;2.51;100.00;100098.88;5072769;28;20051;-74
2023/04/26 03:26:04;;;;;;;8.73;3.45;;;;;;;2.55;100.00;100100.38;5056075;28;20034;-74
2023/04/26 03:28:30;;;;;;;6.78;3.60;;;;;;;2.52;100.00;100101.28;5074260;28;20033;-74
2023/04/26 03:30:56;;;;;;;5.68;3.58;;;;;;;2.52;100.00;100103.31;5073767;28;20032;-74
2023/04/26 03:33:21;;;;;;;9.32;3.55;;;;;;;2.61;100.00;100104.25;5074125;28;20103;-75
2023/04/26 03:35:47;;;;;;;10.38;3.65;;;;;;;2.73;100.00;100105.56;5072535;28;20474;-73
2023/04/26 03:38:12;;;;;;;4.95;2.95;;;;;;;2.71;100.00;100111.63;5072686;28;20024;-75
2023/04/26 03:40:37;;;;;;;11.27;4.43;;;;;;;2.66;100.00;100106.53;5073857;28;20077;-74
2023/04/26 03:43:03;;;;;;;7.07;3.28;;;;;;;2.58;100.00;100107.19;5073889;28;20065;-74
2023/04/26 03:45:28;;;;;;;10.20;3.15;;;;;;;2.74;100.00;100109.94;5073873;28;20041;-74
2023/04/26 03:47:53;;;;;;;12.02;4.03;;;;;;;2.74;100.00;100118.41;5072386;28;20426;-75
2023/04/26 03:50:19;;;;;;;6.65;3.85;;;;;;;2.73;100.00;100102.75;5073422;28;20491;-73
2023/04/26 03:52:45;;;;;;;10.73;3.55;;;;;;;2.76;100.00;100122.38;5073835;28;20031;-73
2023/04/26 03:55:10;;;;;;;12.10;4.60;;;;;;;2.69;100.00;100114.09;5073206;28;20516;-73
2023/04/26 03:57:36;;;;;;;4.93;2.80;;;;;;;2.70;100.00;100123.34;5074410;28;20086;-73
2023/04/26 04:00:08;;;;;;;4.68;2.78;;;;;;;2.90;100.00;100131.69;5076062;28;20023;-73
2023/04/26 04:02:34;;;;;;;7.45;3.75;;;;;;;2.93;100.00;100125.19;5083900;28;20030;-73
2023/04/26 04:04:59;;;;;;;10.35;3.30;;;;;;;2.97;100.00;100123.84;5083500;28;20052;-72
2023/04/26 04:07:24;;;;;;;7.82;2.90;;;;;;;2.99;100.00;100117.72;5088407;28;20021;-72
2023/04/26 04:09:50;;;;;;;8.10;3.40;;;;;;;2.96;100.00;100122.25;5076767;28;20031;-73
2023/04/26 04:12:16;;;;;;;11.05;3.40;;;;;;;2.97;100.00;100126.66;5073933;28;20100;-71
2023/04/26 04:14:41;;;;;;;5.85;2.80;;;;;;;3.00;100.00;100128.56;5072470;28;20139;-70
2023/04/26 04:17:07;;;;;;;6.25;3.08;;;;;;;3.02;100.00;100136.59;5073359;28;20192;-72
2023/04/26 04:19:32;;;;;;;9.63;3.50;;;;;;;3.02;100.00;100133.78;5073615;28;20016;-71
2023/04/26 04:21:58;;;;;;;7.68;3.30;;;;;;;3.08;100.00;100132.00;5073251;28;20500;-70
2023/04/26 04:24:27;;;;;;;8.25;2.92;;;;;;;3.34;100.00;100144.94;5073418;28;20024;-72
2023/04/26 04:26:53;;;;;;;6.43;3.72;;;;;;;3.58;100.00;100151.09;5073302;28;20028;-73
2023/04/26 04:29:18;;;;;;;7.28;3.17;;;;;;;3.77;100.00;100155.81;5073195;28;20146;-73
2023/04/26 04:31:46;;;;;;;6.50;2.95;;;;;;;3.96;100.00;100154.03;5074338;28;20435;-72
2023/04/26 04:34:11;;;;;;;5.20;3.00;;;;;;;4.01;100.00;100147.81;5077454;28;20090;-73
2023/04/26 04:36:39;;;;;;;8.02;3.55;;;;;;;4.05;100.00;100160.59;5077218;28;20497;-73
2023/04/26 04:39:11;;;;;;;10.60;2.85;;;;;;;4.01;100.00;100164.78;5077168;28;20538;-71
2023/04/26 04:41:37;;;;;;;5.95;2.88;;;;;;;4.14;100.00;100167.59;5076995;28;20427;-74
2023/04/26 04:44:03;;;;;;;5.15;2.88;;;;;;;4.32;100.00;100160.13;5076856;28;20044;-73
2023/04/26 04:46:28;;;;;;;8.25;3.00;;;;;;;4.30;100.00;100153.34;5077396;28;20031;-72
2023/04/26 04:48:54;;;;;;;13.07;4.38;;;;;;;4.48;100.00;100167.69;5059249;28;20068;-72
2023/04/26 04:51:20;;;;;;;7.35;2.70;;;;;;;4.50;100.00;100151.88;5077078;28;20076;-73
2023/04/26 04:53:45;;;;;;;5.00;3.00;;;;;;;4.97;100.00;100162.38;5075456;28;20485;-72
2023/04/26 04:56:11;;;;;;;7.18;2.50;;;;;;;5.25;100.00;100178.34;5075066;28;20051;-72
2023/04/26 04:58:37;;;;;;;9.02;2.80;;;;;;;5.52;100.00;100169.28;5076727;28;20040;-73
2023/04/26 05:01:11;;;;;;;6.40;3.60;;;;;;;5.55;100.00;100164.75;5076614;28;20115;-72
2023/04/26 05:03:36;;;;;;;5.63;2.70;;;;;;;5.49;100.00;100178.72;5076450;28;20029;-70
2023/04/26 05:06:05;;;;;;;10.55;2.35;;;;;;;5.52;100.00;100177.00;5077111;28;20037;-72
2023/04/26 05:08:33;;;;;;;9.25;3.00;;;;;;;5.51;100.00;100179.03;5076641;28;20374;-71
2023/04/26 05:10:59;;;;;;;5.85;2.42;;;;;;;5.55;100.00;100176.84;5081986;28;20107;-85
2023/04/26 05:13:26;;;;;;;9.60;2.95;;;;;;;5.46;100.00;100179.63;5060566;28;20035;-79
2023/04/26 05:15:52;;;;;;;6.72;2.10;;;;;;;5.18;100.00;100167.28;5076806;28;20428;-81
2023/04/26 05:18:19;;;;;;;7.72;3.00;;;;;;;5.22;100.00;100187.00;5076880;28;20016;-81
2023/04/26 05:20:44;;;;;;;3.80;1.80;;;;;;;4.94;100.00;100181.09;5077013;28;20020;-80
2023/04/26 05:23:09;;;;;;;7.32;2.17;;;;;;;4.78;100.00;100171.94;5057649;28;20051;-81
2023/04/26 05:25:38;;;;;;;4.72;2.40;;;;;;;4.72;100.00;100185.88;5075500;28;20457;-79
2023/04/26 05:28:03;;;;;;;10.40;2.80;;;;;;;4.88;100.00;100182.13;5076365;28;20093;-81
2023/04/26 05:30:29;;;;;;;6.60;4.07;;;;;;;4.82;100.00;100183.94;5074618;28;20036;-76
2023/04/26 05:32:55;;;;;;;5.90;1.65;;;;;;;4.64;100.00;100195.88;5075747;28;20056;-77
2023/04/26 05:35:21;;;;;;;3.28;1.67;;;;;;;4.74;100.00;100194.72;5075708;28;20020;-78
2023/04/26 05:37:47;;;;;;;6.03;2.92;;;;;;;4.89;100.00;100195.81;5075155;28;20052;-78
2023/04/26 05:40:12;;;;;;;3.30;1.50;;;;;;;4.84;100.00;100176.59;5075915;28;20471;-79
2023/04/26 05:42:38;;;;;;;4.68;1.95;;;;;;;4.87;100.00;100195.47;5073692;28;20028;-78
2023/04/26 05:45:04;;;;;;;11.40;2.22;;;;;;;4.97;100.00;100192.72;5072689;28;20043;-78
2023/04/26 05:47:29;;;;;;;3.78;1.80;;;;;;;4.88;100.00;100196.28;5074868;28;20024;-78
2023/04/26 05:49:55;;;;;;;7.63;2.63;;;;;;;5.06;100.00;100195.66;5074110;28;20365;-79
2023/04/26 05:52:20;;;;;;;4.38;1.98;;;;;;;5.06;100.00;100193.59;5073638;28;20453;-79
2023/04/26 05:54:45;;;;;;;8.93;2.13;;;;;;;5.25;100.00;100201.00;5072229;28;20036;-79
2023/04/26 05:57:11;;;;;;;7.40;2.83;;;;;;;5.35;100.00;100208.34;5073641;28;20012;-78
2023/04/26 05:59:37;;;;;;;9.82;3.45;;;;;;;5.62;100.00;100221.94;5074298;28;20082;-78
2023/04/26 06:02:03;;;;;;;6.32;2.33;;;;;;;5.60;100.00;100218.78;5074213;28;20465;-78
2023/04/26 06:04:29;;;;;;;4.68;1.77;;;;;;;5.66;100.00;100216.94;5075305;28;20035;-78
2023/04/26 06:06:54;;;;;;;11.88;2.58;;;;;;;5.76;100.00;100218.59;5075748;28;20192;-78
2023/04/26 06:09:20;;;;;;;12.02;2.47;;;;;;;5.79;100.00;100220.47;5075851;28;20029;-77
2023/04/26 06:11:45;;;;;;;8.73;2.03;;;;;;;5.77;100.00;100222.22;5074564;28;20074;-78
2023/04/26 06:14:11;;;;;;;6.95;1.98;;;;;;;5.93;100.00;100229.72;5075846;28;20322;-77
2023/04/26 06:16:36;;;;;;;2.30;2.10;;;;;;;5.75;100.00;100221.88;5073039;28;20500;-81
2023/04/26 06:19:01;;;;;;;9.98;1.98;;;;;;;5.93;100.00;100241.06;5054550;28;20020;-79
2023/04/26 06:21:27;;;;;;;4.65;2.03;;;;;;;6.07;100.00;100224.31;5055334;28;20362;-81
2023/04/26 06:23:52;;;;;;;6.97;2.33;;;;;;;6.21;100.00;100237.94;5055512;28;20025;-80
2023/04/26 06:26:18;;;;;;;6.60;2.10;;;;;;;6.27;100.00;100238.13;5055504;28;20036;-80
2023/04/26 06:28:43;;;;;;;4.90;1.52;;;;;;;6.53;100.00;100250.09;5054035;28;20081;-81
2023/04/26 06:31:08;;;;;;;8.30;2.22;;;;;;;6.87;100.00;100252.75;5055378;28;20024;-82
2023/04/26 06:33:34;;;;;;;13.68;1.98;;;;;;;7.84;100.00;100244.47;5055166;28;20480;-81
2023/04/26 06:35:59;;;;;;;13.63;2.08;;;;;;;10.35;97.58;100236.66;5055651;28;20094;-79
2023/04/26 06:38:25;;;;;;;5.85;1.83;;;;;;;13.63;84.70;100225.13;5056000;28;20106;-80
2023/04/26 06:40:50;;;;;;;8.57;1.90;;;;;;;16.08;53.28;100257.38;5053833;28;20017;-80
2023/04/26 06:43:15;;;;;;;7.10;2.00;;;;;;;17.46;45.43;100254.69;5054956;28;20048;-81
2023/04/26 06:45:41;;;;;;;4.30;1.70;;;;;;;19.59;42.47;100258.78;5056692;28;20546;-83
2023/04/26 06:48:07;;;;;;;5.30;2.15;;;;;;;20.79;35.19;100264.59;5071015;28;20058;-83
2023/04/26 06:50:32;;;;;;;7.55;1.52;;;;;;;20.78;33.54;100257.22;5073740;28;20051;-78
2023/04/26 06:52:58;;;;;;;11.57;1.65;;;;;;;21.18;35.13;100246.94;5074827;28;20086;-80
2023/04/26 06:55:23;;;;;;;6.72;2.17;;;;;;;22.00;32.54;100262.59;5073080;28;20099;-79
2023/04/26 06:57:49;;;;;;;5.38;1.70;;;;;;;21.12;31.22;100252.09;5073041;28;20024;-80
2023/04/26 07:00:16;;;;;;;7.15;2.15;;;;;;;20.72;31.65;100254.44;5056712;28;20362;-80
2023/04/26 07:02:41;;;;;;;10.18;1.95;;;;;;;20.12;33.87;100247.94;5073128;28;20070;-83
2023/04/26 07:05:07;;;;;;;7.18;2.08;;;;;;;20.77;32.56;100244.81;5074336;28;20028;-82
2023/04/26 07:07:32;;;;;;;9.00;2.00;;;;;;;20.17;31.72;100256.50;5072957;28;20032;-79
2023/04/26 07:09:58;;;;;;;8.52;1.60;;;;;;;19.48;32.58;100246.09;5073975;28;20032;-82
2023/04/26 07:12:23;;;;;;;8.48;1.50;;;;;;;20.83;32.88;100262.13;5074012;28;20025;-81
2023/04/26 07:14:49;;;;;;;3.97;1.70;;;;;;;23.03;31.19;100262.53;5074444;28;20027;-83
2023/04/26 07:17:14;;;;;;;6.82;1.58;;;;;;;24.75;27.64;100261.13;5074232;28;20106;-82
2023/04/26 07:19:40;;;;;;;8.32;2.00;;;;;;;24.57;26.62;100251.50;5074012;28;20069;-82
2023/04/26 07:22:05;;;;;;;8.57;1.40;;;;;;;23.77;27.00;100230.97;5074360;28;20031;-83
2023/04/26 07:24:31;;;;;;;8.68;2.13;;;;;;;23.53;27.56;100238.22;5074985;28;20089;-83
2023/04/26 07:26:56;;;;;;;3.03;1.45;;;;;;;22.95;27.27;100233.41;5074301;28;20369;-83
2023/04/26 07:29:22;;;;;;;5.60;1.40;;;;;;;23.19;26.51;100229.91;5074304;28;20059;-83
2023/04/26 07:31:48;;;;;;;4.47;1.33;;;;;;;21.16;27.05;100237.22;5074330;28;20031;-82
2023/04/26 07:34:13;;;;;;;4.75;1.42;;;;;;;20.83;29.50;100246.81;5073965;28;20067;-82
2023/04/26 07:36:38;;;;;;;6.30;1.67;;;;;;;21.61;28.40;100246.28;5072713;28;20499;-83
2023/04/26 07:39:05;;;;;;;4.63;1.48;;;;;;;21.07;28.33;100255.16;5074165;28;20124;-84
2023/04/26 07:41:30;;;;;;;8.60;1.63;;;;;;;20.04;29.23;100249.97;5072678;28;20020;-83
2023/04/26 07:43:56;;;;;;;6.47;1.15;;;;;;;21.13;28.30;100265.31;5073523;28;20055;-83
2023/04/26 07:46:22;;;;;;;3.58;1.20;;;;;;;20.67;28.23;100255.34;5074006;28;20032;-81
2023/04/26 07:48:47;;;;;;;7.45;1.40;;;;;;;18.28;29.99;100260.72;5055844;28;20029;-82
2023/04/26 07:51:13;;;;;;;4.40;1.63;;;;;;;16.66;32.64;100257.28;5072115;28;20139;-82
2023/04/26 07:53:39;;;;;;;6.18;1.92;;;;;;;17.36;33.01;100267.91;5073872;28;20024;-82
2023/04/26 07:56:06;;;;;;;5.93;1.48;;;;;;;16.98;31.50;100267.78;5073002;28;20048;-82
2023/04/26 07:58:32;;;;;;;7.40;1.48;;;;;;;17.12;31.54;100265.81;5073551;28;20031;-82
2023/04/26 08:00:58;;;;;;;6.75;1.17;;;;;;;17.87;31.75;100266.03;5073459;28;20103;-82
2023/04/26 08:03:24;;;;;;;3.65;0.98;;;;;;;18.79;30.87;100265.75;5072288;28;20545;-81
2023/04/26 08:05:50;;;;;;;3.92;0.95;;;;;;;19.20;29.57;100268.25;5055369;28;20056;-82
2023/04/26 08:08:15;;;;;;;5.18;1.20;;;;;;;18.20;30.47;100254.00;5072090;28;20052;-82
2023/04/26 08:10:41;;;;;;;3.75;1.20;;;;;;;16.42;32.82;100255.06;5055473;28;20032;-80
2023/04/26 08:13:07;;;;;;;4.95;1.30;;;;;;;17.49;33.62;100267.28;5074558;28;20032;-81
2023/04/26 08:15:32;;;;;;;3.90;1.17;;;;;;;18.41;31.07;100267.94;5089024;28;20052;-82
2023/04/26 08:17:58;;;;;;;3.95;1.00;;;;;;;17.35;31.98;100258.47;5094690;28;20044;-81
2023/04/26 08:20:23;;;;;;;9.23;1.52;;;;;;;15.38;34.40;100264.44;5094845;28;20048;-80
2023/04/26 08:22:49;;;;;;;4.88;1.38;;;;;;;14.22;36.85;100257.41;5091911;28;20035;-78
2023/04/26 08:25:14;;;;;;;5.05;1.60;;;;;;;13.62;39.08;100276.03;5091733;28;20025;-79
2023/04/26 08:27:40;;;;;;;6.38;1.23;;;;;;;12.98;40.34;100291.78;5091924;28;20020;-77
2023/04/26 08:30:06;;;;;;;8.25;1.27;;;;;;;13.12;40.71;100282.22;5084207;28;20485;-77
2023/04/26 08:32:34;;;;;;;5.70;1.40;;;;;;;14.02;40.20;100297.84;5073982;28;20215;-79
2023/04/26 08:34:59;;;;;;;5.53;1.30;;;;;;;15.00;38.54;100299.84;5073688;28;20021;-80
2023/04/26 08:37:25;;;;;;;6.68;1.42;;;;;;;14.87;37.72;100302.47;5073711;28;20035;-81
2023/04/26 08:39:50;;;;;;;12.07;1.80;;;;;;;14.17;38.56;100295.56;5074340;28;20095;-80
2023/04/26 08:42:16;;;;;;;4.75;0.90;;;;;;;13.40;38.80;100304.56;5073755;28;20028;-80
2023/04/26 08:44:43;;;;;;;3.05;1.00;;;;;;;12.96;40.93;100300.09;5073394;28;20026;-80
2023/04/26 08:47:25;;;;;;;2.53;1.20;;;;;;;14.08;41.44;100295.78;5072946;28;20032;-79
2023/04/26 08:49:58;;;;;;;9.57;1.38;;;;;;;15.19;38.84;100301.66;5073217;28;20056;-81
2023/04/26 08:52:26;;;;;;;4.18;0.95;;;;;;;14.34;39.24;100309.94;5073300;28;20036;-80
2023/04/26 08:54:52;;;;;;;6.20;1.45;;;;;;;13.57;41.62;100307.56;5072940;28;20051;-79
2023/04/26 08:57:18;;;;;;;8.30;1.25;;;;;;;13.65;40.91;100315.19;5071858;28;20111;-77
2023/04/26 08:59:43;;;;;;;10.18;1.90;;;;;;;14.11;40.33;100317.75;5072669;28;20021;-80
2023/04/26 09:02:10;;;;;;;7.47;1.20;;;;;;;14.24;38.79;100303.66;5071683;28;20070;-79
2023/04/26 09:04:36;;;;;;;6.00;1.50;;;;;;;15.47;38.92;100304.47;5072738;28;20381;-79
2023/04/26 09:07:03;;;;;;;5.85;1.08;;;;;;;17.12;36.39;100306.22;5072788;28;20346;-80
2023/04/26 09:09:38;;;;;;;5.75;1.10;;;;;;;15.97;35.17;100301.47;5071729;28;20024;-79
2023/04/26 09:12:04;;;;;;;5.40;1.20;;;;;;;15.73;37.18;100291.88;5073009;28;20119;-79
2023/04/26 09:14:30;;;;;;;4.95;1.00;;;;;;;14.91;38.26;100300.91;5071518;28;20021;-78
2023/04/26 09:16:55;;;;;;;5.60;1.25;;;;;;;15.02;38.34;100309.50;5072681;28;20036;-79
2023/04/26 09:19:50;;;;;;;2.15;1.00;;;;;;;16.07;37.68;100317.13;5075041;28;20025;-77
2023/04/26 09:22:36;;;;;;;6.25;0.90;;;;;;;16.00;36.64;100302.50;5075605;28;20064;-77
2023/04/26 09:25:06;;;;;;;4.20;1.10;;;;;;;15.93;37.05;100300.97;5076016;28;20020;-79
2023/04/26 09:27:39;;;;;;;3.25;0.90;;;;;;;15.38;37.60;100301.09;5076378;28;20085;-76
2023/04/26 09:30:22;;;;;;;9.45;1.45;;;;;;;14.66;38.31;100299.06;5075951;28;20028;-78
2023/04/26 09:32:56;;;;;;;3.03;1.25;;;;;;;13.86;38.55;100301.44;5074697;28;20477;-79
2023/04/26 09:35:38;;;;;;;9.70;1.67;;;;;;;13.22;41.11;100313.59;5075723;28;20028;-79
2023/04/26 09:38:03;;;;;;;;;;;;;;;12.58;44.08;100321.41;5076135;28;20032;-77
2023/04/26 09:40:32;;;;;;;3.55;1.40;;;;;;;12.05;45.38;100323.94;5075845;28;19986;-79
2023/04/26 09:43:08;;;;;;;5.00;1.30;;;;;;;11.73;47.58;100325.88;5075731;28;20534;-79
2023/04/26 09:45:50;;;;;;;6.50;1.00;;;;;;;12.06;47.87;100316.94;5074451;28;20496;-79
2023/04/26 09:48:24;;;;;;;3.22;1.02;;;;;;;12.07;48.29;100327.84;5076055;28;20021;-80
2023/04/26 09:50:52;;;;;;;3.45;1.23;;;;;;;12.06;46.89;100316.94;5075501;28;20071;-80
2023/04/26 09:53:33;;;;;;;1.70;1.10;;;;;;;12.34;47.33;100312.28;5075578;28;20044;-79
2023/04/26 09:56:16;;;;;;;5.85;1.55;;;;;;;12.27;47.64;100307.00;5075535;28;20045;-79
2023/04/26 09:58:57;;;;;;;5.03;1.30;;;;;;;12.22;46.40;100304.84;5075337;28;20025;-79
2023/04/26 10:01:24;;;;;;;5.88;1.20;;;;;;;12.38;46.53;100312.88;5075585;28;20501;-79
2023/04/26 10:03:50;;;;;;;2.90;0.70;;;;;;;12.56;44.15;100298.19;5075122;28;20474;-78
2023/04/26 10:06:16;;;;;;;2.42;0.80;;;;;;;12.08;46.82;100309.41;5075742;28;20035;-80
2023/04/26 10:08:42;;;;;;;3.67;1.15;;;;;;;11.96;48.94;100307.69;5075551;28;20373;-78
2023/04/26 10:11:12;;;;;;;2.60;0.85;;;;;;;11.55;49.54;100308.97;5075252;28;20461;-78
2023/04/26 10:13:41;;;;;;;5.18;1.20;;;;;;;11.35;54.18;100301.97;5074969;28;20492;-79
2023/04/26 10:16:08;;;;;;;2.88;1.00;;;;;;;11.34;52.38;100286.06;5075253;28;20055;-79
2023/04/26 10:18:34;;;;;;;5.53;0.90;;;;;;;11.97;52.01;100297.81;5075543;28;20029;-80
2023/04/26 10:21:05;;;;;;;3.58;1.13;;;;;;;12.49;45.31;100304.41;5075384;28;20043;-80
2023/04/26 10:23:32;;;;;;;3.58;0.90;;;;;;;12.92;42.55;100302.41;5075048;28;20052;-79
2023/04/26 10:25:57;;;;;;;7.40;1.60;;;;;;;12.76;42.48;100293.66;5074733;28;20031;-79
2023/04/26 10:28:43;;;;;;;1.98;1.00;;;;;;;12.34;42.55;100297.97;5074570;28;20036;-79
2023/04/26 10:31:09;;;;;;;4.40;1.25;;;;;;;12.46;43.84;100285.31;5073932;28;20458;-78
2023/04/26 10:33:34;;;;;;;4.22;1.00;;;;;;;12.64;45.02;100278.47;5075000;28;20024;-79
2023/04/26 10:36:03;;;;;;;4.57;0.80;;;;;;;13.12;45.40;100284.31;5074740;28;20432;-78
2023/04/26 10:38:29;;;;;;;7.85;1.30;;;;;;;13.38;41.94;100305.09;5074714;28;20032;-78
2023/04/26 10:40:55;;;;;;;4.70;1.00;;;;;;;13.00;40.83;100300.66;5073474;28;20025;-79
2023/04/26 10:43:27;;;;;;;5.28;1.23;;;;;;;12.48;43.53;100282.75;5074780;28;20021;-77
2023/04/26 10:45:55;;;;;;;9.23;1.50;;;;;;;12.19;43.22;100312.38;5074975;28;20105;-78
2023/04/26 10:48:30;;;;;;;7.85;1.73;;;;;;;11.92;45.94;100312.06;5074820;28;20059;-76
2023/04/26 10:51:04;;;;;;;5.03;1.27;;;;;;;11.84;49.64;100308.84;5074202;28;20370;-77
2023/04/26 10:53:31;;;;;;;4.45;1.10;;;;;;;11.40;50.03;100303.31;5074691;28;20367;-78
2023/04/26 10:55:57;;;;;;;3.85;0.88;;;;;;;11.23;50.79;100300.22;5074197;28;20048;-78
2023/04/26 10:58:31;;;;;;;1.40;0.90;;;;;;;11.14;52.31;100311.78;5074438;28;20077;-78
2023/04/26 11:01:04;;;;;;;4.53;0.95;;;;;;;11.12;50.68;100302.94;5074183;28;20103;-79
2023/04/26 11:03:31;;;;;;;2.83;1.40;;;;;;;11.60;51.46;100299.69;5074252;28;20045;-78
2023/04/26 11:05:56;;;;;;;3.05;1.15;;;;;;;11.95;48.80;100302.47;5074518;28;20473;-79
2023/04/26 11:08:30;;;;;;;4.53;1.42;;;;;;;12.38;47.36;100289.94;5074372;28;20138;-80
2023/04/26 11:11:02;;;;;;;7.97;1.17;;;;;;;12.33;43.95;100290.66;5074197;28;20059;-79
2023/04/26 11:13:38;;;;;;;2.95;1.35;;;;;;;12.17;42.28;100294.13;5074577;28;20380;-80
2023/04/26 11:16:08;;;;;;;5.43;1.10;;;;;;;11.90;43.04;100286.00;5074078;28;20036;-80
2023/04/26 11:18:35;;;;;;;4.47;1.08;;;;;;;11.34;43.34;100300.38;5073855;28;20628;-81
2023/04/26 11:21:00;;;;;;;4.85;0.95;;;;;;;10.73;45.57;100307.19;5056118;28;20103;-81
2023/04/26 11:23:27;;;;;;;1.13;0.73;;;;;;;10.51;46.90;100299.81;5072733;28;20115;-80